Ferdinand R Hassler — WTEK — position and weather

sailwx.info

Track history (hours):
 
Tides and Currents Weather Stations Pressure Air Temp Water Temp Dewpoint Dewpoint Depression Visibility Wind Speed Wind Dir Waves Ship Positions

Ferdinand R Hassler

Last reported at 2014-Nov-15 12:34 UTC. Time now 2014-Dec-19 03:18 UTC.
Position N 43°04' W 070°43'.
Warning: this ship's position is 33 days out of date.

Length 37 m; draft 3.8 m.

Type: . MMSI: 369970091.

Date/timePositionNaut miles runAvg speedWind from/ knotsBaromVisibWave heightAir tempDewpointWater temp
2014-Nov-15 12:34N 43°04' W 070°43'4 3.9
2014-Nov-15 11:31N 43°01' W 070°41'7 7.5
2014-Nov-15 10:34N 42°54' W 070°38'9 8.9
2014-Nov-15 09:33N 42°45' W 070°34'82 7.5
2014-Nov-14 22:33N 41°26' W 071°02'1212.1
2014-Nov-14 21:33N 41°16' W 071°12'1010.0
2014-Nov-14 20:33N 41°08' W 071°20'9 9.5
2014-Nov-14 19:33N 41°01' W 071°28'10 9.6
2014-Nov-14 18:33N 40°55' W 071°38'9 9.4
2014-Nov-14 17:33N 40°49' W 071°47'1212.0
2014-Nov-14 16:33N 40°42' W 071°60'1211.7
2014-Nov-14 15:33N 40°35' W 072°12'1211.6
2014-Nov-14 14:33N 40°28' W 072°24'20 9.9
2014-Nov-14 12:33N 40°15' W 072°45'13 4.0
2014-Nov-14 09:20N 40°24' W 072°32'  
Track history (hours):
 
Tides and Currents Weather Stations Pressure Air Temp Water Temp Dewpoint Dewpoint Depression Visibility Wind Speed Wind Dir Waves Ship Positions

Ferdinand R Hassler

Last reported at 2014-Nov-15 12:34 UTC. Time now 2014-Dec-19 03:18 UTC.
Position N 43°04' W 070°43'.
Warning: this ship's position is 33 days out of date.

Length 37 m; draft 3.8 m.

Type: . MMSI: 369970091.

Date/timePositionNaut miles runAvg speedWind from/ knotsBaromVisibWave heightAir tempDewpointWater temp
2014-Nov-15 12:34N 43°04' W 070°43'4 3.9
2014-Nov-15 11:31N 43°01' W 070°41'7 7.5
2014-Nov-15 10:34N 42°54' W 070°38'9 8.9
2014-Nov-15 09:33N 42°45' W 070°34'82 7.5
2014-Nov-14 22:33N 41°26' W 071°02'1212.1
2014-Nov-14 21:33N 41°16' W 071°12'1010.0
2014-Nov-14 20:33N 41°08' W 071°20'9 9.5
2014-Nov-14 19:33N 41°01' W 071°28'10 9.6
2014-Nov-14 18:33N 40°55' W 071°38'9 9.4
2014-Nov-14 17:33N 40°49' W 071°47'1212.0
2014-Nov-14 16:33N 40°42' W 071°60'1211.7
2014-Nov-14 15:33N 40°35' W 072°12'1211.6
2014-Nov-14 14:33N 40°28' W 072°24'20 9.9
2014-Nov-14 12:33N 40°15' W 072°45'13 4.0
2014-Nov-14 09:20N 40°24' W 072°32'  

Dump ship's entire track history